sensor_id;sensor_type;location;lat;lon;timestamp;temperature;humidity
20856;DHT22;63058;49.424;8.420;2022-09-19T00:01:23;11.70;87.50
20856;DHT22;63058;49.424;8.420;2022-09-19T00:03:57;11.70;87.30
20856;DHT22;63058;49.424;8.420;2022-09-19T00:06:24;11.70;87.20
20856;DHT22;63058;49.424;8.420;2022-09-19T00:08:52;11.70;86.70
20856;DHT22;63058;49.424;8.420;2022-09-19T00:11:18;11.70;86.40
20856;DHT22;63058;49.424;8.420;2022-09-19T00:13:46;11.70;86.40
20856;DHT22;63058;49.424;8.420;2022-09-19T00:16:20;11.60;86.40
20856;DHT22;63058;49.424;8.420;2022-09-19T00:18:48;11.60;86.60
20856;DHT22;63058;49.424;8.420;2022-09-19T00:21:20;11.50;86.90
20856;DHT22;63058;49.424;8.420;2022-09-19T00:23:46;11.50;87.30
20856;DHT22;63058;49.424;8.420;2022-09-19T00:26:30;11.60;87.20
20856;DHT22;63058;49.424;8.420;2022-09-19T00:28:56;11.50;87.20
20856;DHT22;63058;49.424;8.420;2022-09-19T00:31:22;11.60;87.20
20856;DHT22;63058;49.424;8.420;2022-09-19T00:33:48;11.60;87.20
20856;DHT22;63058;49.424;8.420;2022-09-19T00:36:15;11.70;87.00
20856;DHT22;63058;49.424;8.420;2022-09-19T00:38:42;11.70;86.90
20856;DHT22;63058;49.424;8.420;2022-09-19T00:41:08;11.70;86.60
20856;DHT22;63058;49.424;8.420;2022-09-19T00:43:49;11.70;86.40
20856;DHT22;63058;49.424;8.420;2022-09-19T00:46:16;11.70;86.40
20856;DHT22;63058;49.424;8.420;2022-09-19T00:48:43;11.70;86.30
20856;DHT22;63058;49.424;8.420;2022-09-19T00:51:19;11.70;86.50
20856;DHT22;63058;49.424;8.420;2022-09-19T00:53:46;11.70;86.70
20856;DHT22;63058;49.424;8.420;2022-09-19T00:56:14;11.60;86.50
20856;DHT22;63058;49.424;8.420;2022-09-19T00:58:41;11.60;86.70
20856;DHT22;63058;49.424;8.420;2022-09-19T01:01:13;11.60;86.70
20856;DHT22;63058;49.424;8.420;2022-09-19T01:03:40;11.70;86.70
20856;DHT22;63058;49.424;8.420;2022-09-19T01:06:39;11.70;86.70
20856;DHT22;63058;49.424;8.420;2022-09-19T01:14:39;11.60;86.50
20856;DHT22;63058;49.424;8.420;2022-09-19T01:17:14;11.60;86.40
20856;DHT22;63058;49.424;8.420;2022-09-19T01:22:35;11.50;86.30
20856;DHT22;63058;49.424;8.420;2022-09-19T01:30:30;11.30;87.00
20856;DHT22;63058;49.424;8.420;2022-09-19T01:33:04;11.30;87.10
20856;DHT22;63058;49.424;8.420;2022-09-19T01:35:34;11.30;87.20
20856;DHT22;63058;49.424;8.420;2022-09-19T01:38:25;11.30;87.30
20856;DHT22;63058;49.424;8.420;2022-09-19T01:40:52;11.30;87.50
20856;DHT22;63058;49.424;8.420;2022-09-19T01:43:19;11.30;87.40
20856;DHT22;63058;49.424;8.420;2022-09-19T01:45:46;11.30;87.50
20856;DHT22;63058;49.424;8.420;2022-09-19T01:51:20;11.40;87.30
20856;DHT22;63058;49.424;8.420;2022-09-19T01:53:58;11.40;87.20
20856;DHT22;63058;49.424;8.420;2022-09-19T02:04:57;11.40;87.10
20856;DHT22;63058;49.424;8.420;2022-09-19T02:10:32;11.40;87.20
20856;DHT22;63058;49.424;8.420;2022-09-19T02:13:02;11.40;87.30
20856;DHT22;63058;49.424;8.420;2022-09-19T02:15:31;11.40;87.00
20856;DHT22;63058;49.424;8.420;2022-09-19T02:18:14;11.40;87.10
20856;DHT22;63058;49.424;8.420;2022-09-19T02:20:55;11.30;87.10
20856;DHT22;63058;49.424;8.420;2022-09-19T02:23:27;11.40;87.50
20856;DHT22;63058;49.424;8.420;2022-09-19T02:25:55;11.40;87.50
20856;DHT22;63058;49.424;8.420;2022-09-19T02:28:29;11.40;87.50
20856;DHT22;63058;49.424;8.420;2022-09-19T02:30:57;11.50;87.80
20856;DHT22;63058;49.424;8.420;2022-09-19T02:33:23;11.50;88.20
20856;DHT22;63058;49.424;8.420;2022-09-19T02:35:50;11.60;88.80
20856;DHT22;63058;49.424;8.420;2022-09-19T02:38:30;11.70;89.10
20856;DHT22;63058;49.424;8.420;2022-09-19T02:43:48;11.90;89.20
20856;DHT22;63058;49.424;8.420;2022-09-19T02:46:28;11.90;89.00
20856;DHT22;63058;49.424;8.420;2022-09-19T02:49:04;12.00;89.00
20856;DHT22;63058;49.424;8.420;2022-09-19T02:52:01;12.00;88.90
20856;DHT22;63058;49.424;8.420;2022-09-19T02:54:31;12.10;89.10
20856;DHT22;63058;49.424;8.420;2022-09-19T02:57:01;12.10;88.90
20856;DHT22;63058;49.424;8.420;2022-09-19T02:59:30;12.10;88.90
20856;DHT22;63058;49.424;8.420;2022-09-19T03:02:06;12.20;89.00
20856;DHT22;63058;49.424;8.420;2022-09-19T03:04:39;12.20;89.20
20856;DHT22;63058;49.424;8.420;2022-09-19T03:07:22;12.30;89.20
20856;DHT22;63058;49.424;8.420;2022-09-19T03:10:15;12.30;89.00
20856;DHT22;63058;49.424;8.420;2022-09-19T03:13:01;12.30;88.80
20856;DHT22;63058;49.424;8.420;2022-09-19T03:15:47;12.20;88.70
20856;DHT22;63058;49.424;8.420;2022-09-19T03:18:17;12.20;88.90
20856;DHT22;63058;49.424;8.420;2022-09-19T03:20:53;12.10;89.00
20856;DHT22;63058;49.424;8.420;2022-09-19T03:23:23;12.00;89.20
20856;DHT22;63058;49.424;8.420;2022-09-19T03:25:51;11.90;89.60
20856;DHT22;63058;49.424;8.420;2022-09-19T03:28:17;11.90;89.70
20856;DHT22;63058;49.424;8.420;2022-09-19T03:30:46;11.80;89.70
20856;DHT22;63058;49.424;8.420;2022-09-19T03:33:11;11.80;89.70
20856;DHT22;63058;49.424;8.420;2022-09-19T03:35:43;11.70;89.60
20856;DHT22;63058;49.424;8.420;2022-09-19T03:38:16;11.70;89.40
20856;DHT22;63058;49.424;8.420;2022-09-19T03:40:41;11.60;89.30
20856;DHT22;63058;49.424;8.420;2022-09-19T03:43:07;11.60;89.30
20856;DHT22;63058;49.424;8.420;2022-09-19T03:45:33;11.50;89.30
20856;DHT22;63058;49.424;8.420;2022-09-19T03:48:00;11.50;89.40
20856;DHT22;63058;49.424;8.420;2022-09-19T03:50:26;11.50;89.60
20856;DHT22;63058;49.424;8.420;2022-09-19T03:52:53;11.40;89.70
20856;DHT22;63058;49.424;8.420;2022-09-19T03:55:19;11.40;89.70
20856;DHT22;63058;49.424;8.420;2022-09-19T03:57:45;11.40;89.70
20856;DHT22;63058;49.424;8.420;2022-09-19T04:00:11;11.30;89.70
20856;DHT22;63058;49.424;8.420;2022-09-19T04:02:39;11.30;89.80
20856;DHT22;63058;49.424;8.420;2022-09-19T04:05:07;11.30;89.90
20856;DHT22;63058;49.424;8.420;2022-09-19T04:07:40;11.30;90.00
20856;DHT22;63058;49.424;8.420;2022-09-19T04:10:07;11.30;89.90
20856;DHT22;63058;49.424;8.420;2022-09-19T04:12:33;11.40;90.00
20856;DHT22;63058;49.424;8.420;2022-09-19T04:15:04;11.40;90.10
20856;DHT22;63058;49.424;8.420;2022-09-19T04:17:32;11.50;90.30
20856;DHT22;63058;49.424;8.420;2022-09-19T04:19:58;11.70;90.50
20856;DHT22;63058;49.424;8.420;2022-09-19T04:22:23;11.70;90.50
20856;DHT22;63058;49.424;8.420;2022-09-19T04:24:50;11.90;90.50
20856;DHT22;63058;49.424;8.420;2022-09-19T04:27:17;11.90;90.50
20856;DHT22;63058;49.424;8.420;2022-09-19T04:29:43;12.00;90.50
20856;DHT22;63058;49.424;8.420;2022-09-19T04:32:09;12.10;90.50
20856;DHT22;63058;49.424;8.420;2022-09-19T04:34:41;12.10;90.50
20856;DHT22;63058;49.424;8.420;2022-09-19T04:37:09;12.30;90.60
20856;DHT22;63058;49.424;8.420;2022-09-19T04:39:35;12.30;90.50
20856;DHT22;63058;49.424;8.420;2022-09-19T04:42:02;12.40;90.50
20856;DHT22;63058;49.424;8.420;2022-09-19T04:44:28;12.50;90.50
20856;DHT22;63058;49.424;8.420;2022-09-19T04:46:57;12.50;90.40
20856;DHT22;63058;49.424;8.420;2022-09-19T04:49:23;12.50;90.40
20856;DHT22;63058;49.424;8.420;2022-09-19T04:52:01;12.50;90.40
20856;DHT22;63058;49.424;8.420;2022-09-19T04:54:27;12.50;90.40
20856;DHT22;63058;49.424;8.420;2022-09-19T04:56:52;12.50;90.40
20856;DHT22;63058;49.424;8.420;2022-09-19T04:59:19;12.50;90.30
20856;DHT22;63058;49.424;8.420;2022-09-19T05:01:45;12.40;90.20
20856;DHT22;63058;49.424;8.420;2022-09-19T05:04:10;12.40;90.20
20856;DHT22;63058;49.424;8.420;2022-09-19T05:06:36;12.40;90.30
20856;DHT22;63058;49.424;8.420;2022-09-19T05:09:02;12.40;90.40
20856;DHT22;63058;49.424;8.420;2022-09-19T05:11:28;12.40;90.50
20856;DHT22;63058;49.424;8.420;2022-09-19T05:13:54;12.50;90.70
20856;DHT22;63058;49.424;8.420;2022-09-19T05:16:20;12.50;90.70
20856;DHT22;63058;49.424;8.420;2022-09-19T05:18:50;12.60;90.70
20856;DHT22;63058;49.424;8.420;2022-09-19T05:21:15;12.60;90.70
20856;DHT22;63058;49.424;8.420;2022-09-19T05:23:43;12.60;90.70
20856;DHT22;63058;49.424;8.420;2022-09-19T05:26:11;12.60;90.70
20856;DHT22;63058;49.424;8.420;2022-09-19T05:28:40;12.50;90.70
20856;DHT22;63058;49.424;8.420;2022-09-19T05:31:07;12.60;90.80
20856;DHT22;63058;49.424;8.420;2022-09-19T05:33:33;12.60;90.90
20856;DHT22;63058;49.424;8.420;2022-09-19T05:36:01;12.60;91.00
20856;DHT22;63058;49.424;8.420;2022-09-19T05:38:29;12.60;91.00
20856;DHT22;63058;49.424;8.420;2022-09-19T05:40:55;12.60;91.10
20856;DHT22;63058;49.424;8.420;2022-09-19T05:43:23;12.70;91.10
20856;DHT22;63058;49.424;8.420;2022-09-19T05:45:50;12.70;91.20
20856;DHT22;63058;49.424;8.420;2022-09-19T05:48:16;12.70;91.20
20856;DHT22;63058;49.424;8.420;2022-09-19T05:50:44;12.80;91.30
20856;DHT22;63058;49.424;8.420;2022-09-19T05:53:10;12.80;91.40
20856;DHT22;63058;49.424;8.420;2022-09-19T05:55:55;12.90;91.40
20856;DHT22;63058;49.424;8.420;2022-09-19T05:58:26;12.90;91.50
20856;DHT22;63058;49.424;8.420;2022-09-19T06:00:52;12.90;91.40
20856;DHT22;63058;49.424;8.420;2022-09-19T06:03:18;13.00;91.40
20856;DHT22;63058;49.424;8.420;2022-09-19T06:05:47;13.00;91.40
20856;DHT22;63058;49.424;8.420;2022-09-19T06:08:19;13.00;91.30
20856;DHT22;63058;49.424;8.420;2022-09-19T06:10:47;13.00;91.30
20856;DHT22;63058;49.424;8.420;2022-09-19T06:13:18;13.00;91.40
20856;DHT22;63058;49.424;8.420;2022-09-19T06:15:50;13.00;91.40
20856;DHT22;63058;49.424;8.420;2022-09-19T06:18:16;13.00;91.40
20856;DHT22;63058;49.424;8.420;2022-09-19T06:20:44;13.00;91.70
20856;DHT22;63058;49.424;8.420;2022-09-19T06:23:11;13.00;91.70
20856;DHT22;63058;49.424;8.420;2022-09-19T06:25:40;13.10;91.70
20856;DHT22;63058;49.424;8.420;2022-09-19T06:28:09;13.10;91.80
20856;DHT22;63058;49.424;8.420;2022-09-19T06:30:37;13.10;91.90
20856;DHT22;63058;49.424;8.420;2022-09-19T06:33:07;13.20;92.00
20856;DHT22;63058;49.424;8.420;2022-09-19T06:35:33;13.20;91.80
20856;DHT22;63058;49.424;8.420;2022-09-19T06:38:05;13.20;91.90
20856;DHT22;63058;49.424;8.420;2022-09-19T06:40:33;13.20;91.70
20856;DHT22;63058;49.424;8.420;2022-09-19T06:43:02;13.30;91.80
20856;DHT22;63058;49.424;8.420;2022-09-19T06:45:35;13.30;91.90
20856;DHT22;63058;49.424;8.420;2022-09-19T06:48:04;13.30;91.70
20856;DHT22;63058;49.424;8.420;2022-09-19T06:50:31;13.30;91.90
20856;DHT22;63058;49.424;8.420;2022-09-19T06:52:58;13.40;92.20
20856;DHT22;63058;49.424;8.420;2022-09-19T06:55:25;13.50;92.40
20856;DHT22;63058;49.424;8.420;2022-09-19T06:58:11;13.50;92.60
20856;DHT22;63058;49.424;8.420;2022-09-19T07:00:38;13.60;92.30
20856;DHT22;63058;49.424;8.420;2022-09-19T07:03:06;13.70;92.80
20856;DHT22;63058;49.424;8.420;2022-09-19T07:05:36;13.80;92.90
20856;DHT22;63058;49.424;8.420;2022-09-19T07:08:04;13.80;92.80
20856;DHT22;63058;49.424;8.420;2022-09-19T07:10:30;14.00;92.90
20856;DHT22;63058;49.424;8.420;2022-09-19T07:12:58;14.00;92.80
20856;DHT22;63058;49.424;8.420;2022-09-19T07:15:32;14.10;92.70
20856;DHT22;63058;49.424;8.420;2022-09-19T07:17:59;14.10;92.50
20856;DHT22;63058;49.424;8.420;2022-09-19T07:20:29;14.20;92.70
20856;DHT22;63058;49.424;8.420;2022-09-19T07:23:02;14.30;92.50
20856;DHT22;63058;49.424;8.420;2022-09-19T07:25:33;14.30;92.10
20856;DHT22;63058;49.424;8.420;2022-09-19T07:28:02;14.40;92.00
20856;DHT22;63058;49.424;8.420;2022-09-19T07:30:39;14.40;91.80
20856;DHT22;63058;49.424;8.420;2022-09-19T07:33:06;14.40;91.90
20856;DHT22;63058;49.424;8.420;2022-09-19T07:35:41;14.40;91.70
20856;DHT22;63058;49.424;8.420;2022-09-19T07:38:12;14.40;91.60
20856;DHT22;63058;49.424;8.420;2022-09-19T07:40:41;14.40;91.30
20856;DHT22;63058;49.424;8.420;2022-09-19T07:43:10;14.40;91.40
20856;DHT22;63058;49.424;8.420;2022-09-19T07:45:43;14.40;91.40
20856;DHT22;63058;49.424;8.420;2022-09-19T07:48:09;14.40;91.50
20856;DHT22;63058;49.424;8.420;2022-09-19T07:50:39;14.40;91.50
20856;DHT22;63058;49.424;8.420;2022-09-19T07:53:09;14.40;91.50
20856;DHT22;63058;49.424;8.420;2022-09-19T07:55:38;14.50;91.80
20856;DHT22;63058;49.424;8.420;2022-09-19T07:58:07;14.60;92.10
20856;DHT22;63058;49.424;8.420;2022-09-19T08:00:35;14.60;92.10
20856;DHT22;63058;49.424;8.420;2022-09-19T08:03:09;14.70;92.10
20856;DHT22;63058;49.424;8.420;2022-09-19T08:05:39;14.80;92.00
20856;DHT22;63058;49.424;8.420;2022-09-19T08:08:07;14.80;92.00
20856;DHT22;63058;49.424;8.420;2022-09-19T08:10:33;14.90;92.20
20856;DHT22;63058;49.424;8.420;2022-09-19T08:13:00;15.00;92.10
20856;DHT22;63058;49.424;8.420;2022-09-19T08:15:26;15.10;92.10
20856;DHT22;63058;49.424;8.420;2022-09-19T08:18:00;15.20;92.20
20856;DHT22;63058;49.424;8.420;2022-09-19T08:20:28;15.30;91.50
20856;DHT22;63058;49.424;8.420;2022-09-19T08:23:02;15.40;91.90
20856;DHT22;63058;49.424;8.420;2022-09-19T08:25:33;15.50;91.80
20856;DHT22;63058;49.424;8.420;2022-09-19T08:27:59;15.60;91.90
20856;DHT22;63058;49.424;8.420;2022-09-19T08:30:26;15.70;92.00
20856;DHT22;63058;49.424;8.420;2022-09-19T08:32:56;15.80;91.80
20856;DHT22;63058;49.424;8.420;2022-09-19T08:35:26;15.90;91.50
20856;DHT22;63058;49.424;8.420;2022-09-19T08:37:58;15.90;91.50
20856;DHT22;63058;49.424;8.420;2022-09-19T08:40:30;15.90;91.00
20856;DHT22;63058;49.424;8.420;2022-09-19T08:46:28;16.00;90.90
20856;DHT22;63058;49.424;8.420;2022-09-19T08:49:09;16.10;90.50
20856;DHT22;63058;49.424;8.420;2022-09-19T08:51:59;16.20;90.70
20856;DHT22;63058;49.424;8.420;2022-09-19T08:54:30;16.20;90.00
20856;DHT22;63058;49.424;8.420;2022-09-19T08:57:00;16.20;90.00
20856;DHT22;63058;49.424;8.420;2022-09-19T08:59:32;16.20;90.40
20856;DHT22;63058;49.424;8.420;2022-09-19T09:02:29;16.20;89.80
20856;DHT22;63058;49.424;8.420;2022-09-19T09:04:53;16.20;90.00
20856;DHT22;63058;49.424;8.420;2022-09-19T09:07:48;16.20;90.60
20856;DHT22;63058;49.424;8.420;2022-09-19T09:22:45;16.70;90.10
20856;DHT22;63058;49.424;8.420;2022-09-19T09:25:22;16.90;90.20
20856;DHT22;63058;49.424;8.420;2022-09-19T09:28:18;17.00;89.50
20856;DHT22;63058;49.424;8.420;2022-09-19T09:31:13;17.00;89.50
20856;DHT22;63058;49.424;8.420;2022-09-19T09:34:14;17.10;89.40
20856;DHT22;63058;49.424;8.420;2022-09-19T09:37:10;17.10;89.70
20856;DHT22;63058;49.424;8.420;2022-09-19T09:39:57;17.30;89.80
20856;DHT22;63058;49.424;8.420;2022-09-19T09:45:47;17.60;89.70
20856;DHT22;63058;49.424;8.420;2022-09-19T09:48:21;17.70;89.00
20856;DHT22;63058;49.424;8.420;2022-09-19T09:54:09;17.70;88.30
20856;DHT22;63058;49.424;8.420;2022-09-19T10:05:37;17.90;88.80
20856;DHT22;63058;49.424;8.420;2022-09-19T10:08:18;18.00;89.70
20856;DHT22;63058;49.424;8.420;2022-09-19T10:10:47;18.20;89.00
20856;DHT22;63058;49.424;8.420;2022-09-19T10:13:26;18.30;88.50
20856;DHT22;63058;49.424;8.420;2022-09-19T10:16:02;18.40;86.60
20856;DHT22;63058;49.424;8.420;2022-09-19T10:21:36;18.50;86.90
20856;DHT22;63058;49.424;8.420;2022-09-19T10:24:40;18.70;88.40
20856;DHT22;63058;49.424;8.420;2022-09-19T10:27:15;18.90;87.40
20856;DHT22;63058;49.424;8.420;2022-09-19T10:29:49;19.10;86.50
20856;DHT22;63058;49.424;8.420;2022-09-19T10:32:30;19.20;84.20
20856;DHT22;63058;49.424;8.420;2022-09-19T10:35:31;19.20;83.10
20856;DHT22;63058;49.424;8.420;2022-09-19T10:38:26;19.20;82.00
20856;DHT22;63058;49.424;8.420;2022-09-19T10:41:02;19.10;83.30
20856;DHT22;63058;49.424;8.420;2022-09-19T10:43:48;19.10;83.00
20856;DHT22;63058;49.424;8.420;2022-09-19T10:46:24;19.00;83.10
20856;DHT22;63058;49.424;8.420;2022-09-19T10:48:58;18.90;83.40
20856;DHT22;63058;49.424;8.420;2022-09-19T10:51:51;18.90;83.50
20856;DHT22;63058;49.424;8.420;2022-09-19T10:54:40;18.70;83.90
20856;DHT22;63058;49.424;8.420;2022-09-19T10:58:18;18.60;83.00
20856;DHT22;63058;49.424;8.420;2022-09-19T11:00:58;18.60;83.00
20856;DHT22;63058;49.424;8.420;2022-09-19T11:03:39;18.60;85.30
20856;DHT22;63058;49.424;8.420;2022-09-19T11:06:09;18.60;85.30
20856;DHT22;63058;49.424;8.420;2022-09-19T11:08:50;18.70;87.10
20856;DHT22;63058;49.424;8.420;2022-09-19T11:11:41;18.80;85.80
20856;DHT22;63058;49.424;8.420;2022-09-19T11:14:44;18.80;85.80
20856;DHT22;63058;49.424;8.420;2022-09-19T11:17:44;18.80;83.90
20856;DHT22;63058;49.424;8.420;2022-09-19T11:25:57;18.90;85.30
20856;DHT22;63058;49.424;8.420;2022-09-19T11:31:27;19.40;90.00
20856;DHT22;63058;49.424;8.420;2022-09-19T11:34:18;19.90;88.10
20856;DHT22;63058;49.424;8.420;2022-09-19T11:42:30;20.90;83.00
20856;DHT22;63058;49.424;8.420;2022-09-19T11:45:16;21.10;82.30
20856;DHT22;63058;49.424;8.420;2022-09-19T11:56:03;21.30;78.40
20856;DHT22;63058;49.424;8.420;2022-09-19T11:58:54;21.40;82.40
20856;DHT22;63058;49.424;8.420;2022-09-19T12:11:06;21.90;81.10
20856;DHT22;63058;49.424;8.420;2022-09-19T12:13:45;22.10;84.20
20856;DHT22;63058;49.424;8.420;2022-09-19T12:16:37;22.40;87.30
20856;DHT22;63058;49.424;8.420;2022-09-19T12:19:12;23.00;86.50
20856;DHT22;63058;49.424;8.420;2022-09-19T12:21:53;23.60;86.90
20856;DHT22;63058;49.424;8.420;2022-09-19T12:24:28;24.00;80.90
20856;DHT22;63058;49.424;8.420;2022-09-19T12:27:18;24.40;83.50
20856;DHT22;63058;49.424;8.420;2022-09-19T12:30:04;24.80;82.20
20856;DHT22;63058;49.424;8.420;2022-09-19T12:33:05;25.30;80.70
20856;DHT22;63058;49.424;8.420;2022-09-19T12:36:02;25.80;77.80
20856;DHT22;63058;49.424;8.420;2022-09-19T12:50:24;26.40;64.60
20856;DHT22;63058;49.424;8.420;2022-09-19T12:55:51;24.90;58.90
20856;DHT22;63058;49.424;8.420;2022-09-19T13:02:00;23.00;60.90
20856;DHT22;63058;49.424;8.420;2022-09-19T13:07:35;21.00;63.30
20856;DHT22;63058;49.424;8.420;2022-09-19T13:10:15;19.90;65.70
20856;DHT22;63058;49.424;8.420;2022-09-19T13:15:49;18.50;69.90
20856;DHT22;63058;49.424;8.420;2022-09-19T13:18:56;17.90;71.90
20856;DHT22;63058;49.424;8.420;2022-09-19T13:24:15;17.20;76.60
20856;DHT22;63058;49.424;8.420;2022-09-19T13:26:42;17.20;80.50
20856;DHT22;63058;49.424;8.420;2022-09-19T13:37:47;18.70;87.40
20856;DHT22;63058;49.424;8.420;2022-09-19T13:39:53;19.10;86.60
20856;DHT22;63058;49.424;8.420;2022-09-19T13:42:32;19.40;87.40
20856;DHT22;63058;49.424;8.420;2022-09-19T13:45:12;19.80;89.40
20856;DHT22;63058;49.424;8.420;2022-09-19T13:47:44;20.30;90.80
20856;DHT22;63058;49.424;8.420;2022-09-19T13:50:30;20.90;91.00
20856;DHT22;63058;49.424;8.420;2022-09-19T13:53:02;21.50;91.50
20856;DHT22;63058;49.424;8.420;2022-09-19T13:55:36;22.20;91.50
20856;DHT22;63058;49.424;8.420;2022-09-19T13:58:16;22.80;91.70
20856;DHT22;63058;49.424;8.420;2022-09-19T14:00:44;23.60;90.60
20856;DHT22;63058;49.424;8.420;2022-09-19T14:03:27;24.30;91.60
20856;DHT22;63058;49.424;8.420;2022-09-19T14:06:28;25.10;89.10
20856;DHT22;63058;49.424;8.420;2022-09-19T14:12:00;26.50;84.10
20856;DHT22;63058;49.424;8.420;2022-09-19T14:19:46;27.30;77.80
20856;DHT22;63058;49.424;8.420;2022-09-19T14:25:24;27.80;76.30
20856;DHT22;63058;49.424;8.420;2022-09-19T14:28:00;28.10;77.10
20856;DHT22;63058;49.424;8.420;2022-09-19T14:33:25;28.60;77.30
20856;DHT22;63058;49.424;8.420;2022-09-19T14:36:01;28.60;72.70
20856;DHT22;63058;49.424;8.420;2022-09-19T14:38:38;28.40;72.50
20856;DHT22;63058;49.424;8.420;2022-09-19T14:41:20;28.10;69.90
20856;DHT22;63058;49.424;8.420;2022-09-19T14:47:07;26.90;68.10
20856;DHT22;63058;49.424;8.420;2022-09-19T14:49:45;26.40;69.70
20856;DHT22;63058;49.424;8.420;2022-09-19T14:52:19;26.00;73.10
20856;DHT22;63058;49.424;8.420;2022-09-19T14:54:58;25.80;77.60
20856;DHT22;63058;49.424;8.420;2022-09-19T14:57:25;25.70;73.10
20856;DHT22;63058;49.424;8.420;2022-09-19T14:59:51;25.70;76.90
20856;DHT22;63058;49.424;8.420;2022-09-19T15:07:38;26.10;75.70
20856;DHT22;63058;49.424;8.420;2022-09-19T15:13:18;25.80;69.60
20856;DHT22;63058;49.424;8.420;2022-09-19T15:15:50;25.30;68.20
20856;DHT22;63058;49.424;8.420;2022-09-19T15:21:08;24.30;70.30
20856;DHT22;63058;49.424;8.420;2022-09-19T15:23:37;23.80;70.00
20856;DHT22;63058;49.424;8.420;2022-09-19T15:26:07;23.50;73.60
20856;DHT22;63058;49.424;8.420;2022-09-19T15:28:35;23.20;74.70
20856;DHT22;63058;49.424;8.420;2022-09-19T15:31:17;22.90;76.30
20856;DHT22;63058;49.424;8.420;2022-09-19T15:33:46;22.80;78.50
20856;DHT22;63058;49.424;8.420;2022-09-19T15:36:14;23.10;86.00
20856;DHT22;63058;49.424;8.420;2022-09-19T15:38:41;23.60;90.10
20856;DHT22;63058;49.424;8.420;2022-09-19T15:41:08;24.10;86.90
20856;DHT22;63058;49.424;8.420;2022-09-19T15:43:40;24.40;86.10
20856;DHT22;63058;49.424;8.420;2022-09-19T15:48:52;25.00;79.10
20856;DHT22;63058;49.424;8.420;2022-09-19T15:53:59;25.30;77.30
20856;DHT22;63058;49.424;8.420;2022-09-19T15:56:25;25.20;77.50
20856;DHT22;63058;49.424;8.420;2022-09-19T16:01:21;24.80;75.60
20856;DHT22;63058;49.424;8.420;2022-09-19T16:04:01;24.60;74.90
20856;DHT22;63058;49.424;8.420;2022-09-19T16:07:03;24.20;72.60
20856;DHT22;63058;49.424;8.420;2022-09-19T16:09:46;23.90;73.40
20856;DHT22;63058;49.424;8.420;2022-09-19T16:12:31;23.50;73.50
20856;DHT22;63058;49.424;8.420;2022-09-19T16:15:27;23.10;72.00
20856;DHT22;63058;49.424;8.420;2022-09-19T16:23:09;22.20;74.10
20856;DHT22;63058;49.424;8.420;2022-09-19T16:25:51;21.90;74.20
20856;DHT22;63058;49.424;8.420;2022-09-19T16:33:42;21.00;73.50
20856;DHT22;63058;49.424;8.420;2022-09-19T16:36:13;20.70;74.80
20856;DHT22;63058;49.424;8.420;2022-09-19T16:41:32;20.30;74.70
20856;DHT22;63058;49.424;8.420;2022-09-19T16:44:12;20.20;75.80
20856;DHT22;63058;49.424;8.420;2022-09-19T16:46:45;20.00;76.10
20856;DHT22;63058;49.424;8.420;2022-09-19T16:49:11;19.90;77.20
20856;DHT22;63058;49.424;8.420;2022-09-19T16:51:37;19.80;77.30
20856;DHT22;63058;49.424;8.420;2022-09-19T16:54:03;19.60;76.80
20856;DHT22;63058;49.424;8.420;2022-09-19T16:56:39;19.50;76.60
20856;DHT22;63058;49.424;8.420;2022-09-19T16:59:16;19.40;77.30
20856;DHT22;63058;49.424;8.420;2022-09-19T17:01:46;19.30;77.10
20856;DHT22;63058;49.424;8.420;2022-09-19T17:04:13;19.20;77.80
20856;DHT22;63058;49.424;8.420;2022-09-19T17:06:44;19.20;77.70
20856;DHT22;63058;49.424;8.420;2022-09-19T17:09:09;19.20;77.70
20856;DHT22;63058;49.424;8.420;2022-09-19T17:11:35;19.10;77.60
20856;DHT22;63058;49.424;8.420;2022-09-19T17:14:01;19.10;77.70
20856;DHT22;63058;49.424;8.420;2022-09-19T17:16:27;19.00;77.10
20856;DHT22;63058;49.424;8.420;2022-09-19T17:18:53;18.90;76.60
20856;DHT22;63058;49.424;8.420;2022-09-19T17:21:18;18.80;76.30
20856;DHT22;63058;49.424;8.420;2022-09-19T17:23:47;18.70;76.30
20856;DHT22;63058;49.424;8.420;2022-09-19T17:26:13;18.50;76.40
20856;DHT22;63058;49.424;8.420;2022-09-19T17:28:39;18.40;76.70
20856;DHT22;63058;49.424;8.420;2022-09-19T17:31:07;18.30;76.90
20856;DHT22;63058;49.424;8.420;2022-09-19T17:33:34;18.10;77.20
20856;DHT22;63058;49.424;8.420;2022-09-19T17:36:00;18.00;77.60
20856;DHT22;63058;49.424;8.420;2022-09-19T17:38:28;18.00;78.70
20856;DHT22;63058;49.424;8.420;2022-09-19T17:40:54;17.90;78.20
20856;DHT22;63058;49.424;8.420;2022-09-19T17:43:21;17.80;78.40
20856;DHT22;63058;49.424;8.420;2022-09-19T17:45:55;17.70;78.60
20856;DHT22;63058;49.424;8.420;2022-09-19T17:48:25;17.60;78.80
20856;DHT22;63058;49.424;8.420;2022-09-19T17:50:51;17.50;79.10
20856;DHT22;63058;49.424;8.420;2022-09-19T17:53:17;17.50;79.50
20856;DHT22;63058;49.424;8.420;2022-09-19T17:55:43;17.40;79.70
20856;DHT22;63058;49.424;8.420;2022-09-19T17:58:09;17.40;79.70
20856;DHT22;63058;49.424;8.420;2022-09-19T18:00:39;17.30;79.90
20856;DHT22;63058;49.424;8.420;2022-09-19T18:03:05;17.20;79.80
20856;DHT22;63058;49.424;8.420;2022-09-19T18:06:03;17.10;80.10
20856;DHT22;63058;49.424;8.420;2022-09-19T18:08:30;17.00;80.10
20856;DHT22;63058;49.424;8.420;2022-09-19T18:11:03;17.00;80.40
20856;DHT22;63058;49.424;8.420;2022-09-19T18:13:29;16.90;80.30
20856;DHT22;63058;49.424;8.420;2022-09-19T18:16:13;16.80;80.70
20856;DHT22;63058;49.424;8.420;2022-09-19T18:18:42;16.70;81.00
20856;DHT22;63058;49.424;8.420;2022-09-19T18:21:09;16.60;81.10
20856;DHT22;63058;49.424;8.420;2022-09-19T18:23:36;16.60;81.50
20856;DHT22;63058;49.424;8.420;2022-09-19T18:26:05;16.40;81.70
20856;DHT22;63058;49.424;8.420;2022-09-19T18:28:32;16.40;82.10
20856;DHT22;63058;49.424;8.420;2022-09-19T18:31:04;16.30;82.40
20856;DHT22;63058;49.424;8.420;2022-09-19T18:33:30;16.30;82.90
20856;DHT22;63058;49.424;8.420;2022-09-19T18:36:03;16.20;83.20
20856;DHT22;63058;49.424;8.420;2022-09-19T18:38:29;16.20;83.50
20856;DHT22;63058;49.424;8.420;2022-09-19T18:40:55;16.30;83.90
20856;DHT22;63058;49.424;8.420;2022-09-19T18:43:20;16.30;84.20
20856;DHT22;63058;49.424;8.420;2022-09-19T18:45:46;16.40;84.60
20856;DHT22;63058;49.424;8.420;2022-09-19T18:48:12;16.40;84.60
20856;DHT22;63058;49.424;8.420;2022-09-19T18:50:40;16.40;84.60
20856;DHT22;63058;49.424;8.420;2022-09-19T18:53:06;16.50;84.30
20856;DHT22;63058;49.424;8.420;2022-09-19T18:55:34;16.50;84.20
20856;DHT22;63058;49.424;8.420;2022-09-19T18:58:00;16.60;83.80
20856;DHT22;63058;49.424;8.420;2022-09-19T19:00:25;16.60;84.00
20856;DHT22;63058;49.424;8.420;2022-09-19T19:02:51;16.60;83.80
20856;DHT22;63058;49.424;8.420;2022-09-19T19:05:17;16.60;83.70
20856;DHT22;63058;49.424;8.420;2022-09-19T19:07:43;16.60;83.70